Time;durP1;ratioP1;P1;durP2;ratioP2;P2;SDS_P1;SDS_P2;PMS_P1;PMS_P2;Temp;Humidity;BMP_temperature;BMP_pressure;BME280_temperature;BME280_humidity;BME280_pressure;Samples;Min_cycle;Max_cycle;Signal;HPM_P1;HPM_P2
2022/01/18 00:01:25;;;;;;;;;;;18.90;47.60;;;;;;5143442;27;42827;-80
2022/01/18 00:03:50;;;;;;;;;;;18.90;47.70;;;;;;5131142;27;43040;-79
2022/01/18 00:06:16;;;;;;;;;;;18.90;47.80;;;;;;5115533;27;45265;-80
2022/01/18 00:08:41;;;;;;;;;;;18.90;47.70;;;;;;5133366;27;43235;-73
2022/01/18 00:11:07;;;;;;;;;;;18.90;47.70;;;;;;5131507;27;43001;-79
2022/01/18 00:13:45;;;;;;;;;;;18.90;47.80;;;;;;5142869;27;42979;-78
2022/01/18 00:19:01;;;;;;;;;;;18.90;47.80;;;;;;5103998;27;43149;-79
2022/01/18 00:21:36;;;;;;;;;;;18.90;47.70;;;;;;5127293;27;44555;-76
2022/01/18 00:24:02;;;;;;;;;;;18.90;47.80;;;;;;5143088;27;43083;-80
2022/01/18 00:26:30;;;;;;;;;;;18.90;47.80;;;;;;5136729;27;42925;-80
2022/01/18 00:29:01;;;;;;;;;;;18.90;47.80;;;;;;5131515;27;43010;-80
2022/01/18 00:34:14;;;;;;;;;;;18.90;47.90;;;;;;5124757;27;43036;-78
2022/01/18 00:37:26;;;;;;;;;;;18.90;48.30;;;;;;5124838;27;43882;-80
2022/01/18 00:39:26;;;;;;;;;;;18.90;47.90;;;;;;5127151;27;43138;-79
2022/01/18 00:41:52;;;;;;;;;;;18.90;47.90;;;;;;5137831;27;43548;-80
2022/01/18 00:44:17;;;;;;;;;;;18.90;48.00;;;;;;5138663;27;43006;-79
2022/01/18 00:46:43;;;;;;;;;;;18.90;48.00;;;;;;5141932;27;42861;-79
2022/01/18 00:49:10;;;;;;;;;;;18.90;48.10;;;;;;5145089;27;42931;-79
2022/01/18 00:51:38;;;;;;;;;;;18.90;48.10;;;;;;5148867;27;42881;-80
2022/01/18 00:54:05;;;;;;;;;;;18.90;48.10;;;;;;5134440;27;43244;-77
2022/01/18 00:56:32;;;;;;;;;;;18.80;48.60;;;;;;5143751;27;43203;-78
2022/01/18 00:58:58;;;;;;;;;;;18.80;48.20;;;;;;5126998;27;43252;-79
2022/01/18 01:01:25;;;;;;;;;;;18.90;48.30;;;;;;5133493;27;43060;-79
2022/01/18 01:03:52;;;;;;;;;;;18.90;48.30;;;;;;5146347;27;43278;-80
2022/01/18 01:06:18;;;;;;;;;;;18.80;48.40;;;;;;5135133;27;42900;-79
2022/01/18 01:08:43;;;;;;;;;;;18.80;48.50;;;;;;5146029;27;42981;-79
2022/01/18 01:11:10;;;;;;;;;;;18.80;48.60;;;;;;5129027;27;43467;-79
2022/01/18 01:13:36;;;;;;;;;;;18.90;48.70;;;;;;5130138;27;42853;-79
2022/01/18 01:32:46;;;;;;;;;;;18.80;49.60;;;;;;5130084;27;43353;-79
2022/01/18 01:45:20;;;;;;;;;;;18.80;49.80;;;;;;5139688;27;42754;-80
2022/01/18 01:47:50;;;;;;;;;;;18.80;49.80;;;;;;5142869;27;43590;-80
2022/01/18 01:50:19;;;;;;;;;;;18.80;49.80;;;;;;5128603;27;42781;-80
2022/01/18 01:52:45;;;;;;;;;;;18.80;49.80;;;;;;5132885;27;43369;-79
2022/01/18 01:55:11;;;;;;;;;;;18.80;49.80;;;;;;5126782;27;43074;-79
2022/01/18 01:57:37;;;;;;;;;;;18.80;49.80;;;;;;5129270;27;42995;-80
2022/01/18 02:00:06;;;;;;;;;;;18.80;49.80;;;;;;5147326;27;43001;-78
2022/01/18 02:02:32;;;;;;;;;;;18.80;49.90;;;;;;5132053;27;43599;-79
2022/01/18 02:04:57;;;;;;;;;;;18.80;49.80;;;;;;5143934;27;43231;-79
2022/01/18 02:07:23;;;;;;;;;;;18.80;49.90;;;;;;5128092;27;43172;-79
2022/01/18 02:09:48;;;;;;;;;;;18.80;50.00;;;;;;5138515;27;42943;-79
2022/01/18 02:12:17;;;;;;;;;;;18.70;50.00;;;;;;5136529;27;42967;-80
2022/01/18 02:14:46;;;;;;;;;;;18.80;50.10;;;;;;5144445;27;43024;-79
2022/01/18 02:22:40;;;;;;;;;;;18.80;50.20;;;;;;5135819;27;42993;-77
2022/01/18 02:25:06;;;;;;;;;;;18.80;50.10;;;;;;5129024;27;43039;-80
2022/01/18 02:27:31;;;;;;;;;;;18.80;50.20;;;;;;5131318;27;43024;-78
2022/01/18 02:29:57;;;;;;;;;;;18.70;50.20;;;;;;5135391;27;43148;-79
2022/01/18 02:32:22;;;;;;;;;;;18.80;50.30;;;;;;5128460;27;43789;-79
2022/01/18 02:34:48;;;;;;;;;;;18.80;50.40;;;;;;5143826;27;43237;-79
2022/01/18 02:37:14;;;;;;;;;;;18.80;50.40;;;;;;5129382;27;42921;-78
2022/01/18 02:39:40;;;;;;;;;;;18.70;50.50;;;;;;5136499;27;43100;-79
2022/01/18 02:42:07;;;;;;;;;;;18.70;50.50;;;;;;5135858;27;42942;-79
2022/01/18 02:44:34;;;;;;;;;;;18.70;50.60;;;;;;5147146;27;43058;-76
2022/01/18 02:47:00;;;;;;;;;;;18.70;50.60;;;;;;5111663;27;43518;-77
2022/01/18 02:49:27;;;;;;;;;;;18.80;50.70;;;;;;5144969;27;42992;-76
2022/01/18 02:51:52;;;;;;;;;;;18.70;50.80;;;;;;5128757;27;43221;-76
2022/01/18 02:54:18;;;;;;;;;;;18.70;50.80;;;;;;5128706;27;42916;-79
2022/01/18 02:56:52;;;;;;;;;;;18.70;50.70;;;;;;5127423;27;42880;-79
2022/01/18 02:59:29;;;;;;;;;;;18.70;50.80;;;;;;5142662;27;43013;-78
2022/01/18 03:04:43;;;;;;;;;;;18.70;50.60;;;;;;5128711;27;42860;-80
2022/01/18 03:07:09;;;;;;;;;;;18.70;50.50;;;;;;5130923;27;43793;-79
2022/01/18 03:09:35;;;;;;;;;;;18.80;50.70;;;;;;5145388;27;43193;-79
2022/01/18 03:12:01;;;;;;;;;;;18.70;50.70;;;;;;5135660;27;43958;-79
2022/01/18 03:14:27;;;;;;;;;;;18.70;50.60;;;;;;5127832;27;42917;-79
2022/01/18 03:16:52;;;;;;;;;;;18.70;50.70;;;;;;5126745;27;42890;-78
2022/01/18 03:19:18;;;;;;;;;;;18.80;51.50;;;;;;5137445;27;42951;-78
2022/01/18 03:21:44;;;;;;;;;;;18.80;51.10;;;;;;5138036;27;43719;-77
2022/01/18 03:24:13;;;;;;;;;;;18.80;51.00;;;;;;5128224;27;43202;-79
2022/01/18 03:29:24;;;;;;;;;;;18.80;51.10;;;;;;5132686;27;43041;-77
2022/01/18 03:32:02;;;;;;;;;;;18.80;50.90;;;;;;5143812;27;43666;-74
2022/01/18 03:34:27;;;;;;;;;;;18.80;51.00;;;;;;5130698;27;43474;-78
2022/01/18 03:36:53;;;;;;;;;;;18.80;51.10;;;;;;5126768;27;43526;-77
2022/01/18 03:39:19;;;;;;;;;;;18.80;51.10;;;;;;5124928;27;43519;-79
2022/01/18 03:41:51;;;;;;;;;;;18.80;51.20;;;;;;5126743;27;43530;-77
2022/01/18 03:44:18;;;;;;;;;;;18.80;51.10;;;;;;5143782;27;42981;-79
2022/01/18 03:46:44;;;;;;;;;;;18.80;51.10;;;;;;5146089;27;43052;-77
2022/01/18 03:49:09;;;;;;;;;;;18.80;51.10;;;;;;5142552;27;43009;-80
2022/01/18 03:51:35;;;;;;;;;;;18.80;51.00;;;;;;5124755;27;43029;-80
2022/01/18 03:54:00;;;;;;;;;;;18.80;51.10;;;;;;5143602;27;42860;-78
2022/01/18 03:56:26;;;;;;;;;;;18.70;51.00;;;;;;5145784;27;43392;-79
2022/01/18 03:58:51;;;;;;;;;;;18.80;51.10;;;;;;5137068;27;42993;-79
2022/01/18 04:01:17;;;;;;;;;;;18.70;50.90;;;;;;5126950;27;42939;-79
2022/01/18 04:03:43;;;;;;;;;;;18.70;51.00;;;;;;5134204;27;43010;-76
2022/01/18 04:06:08;;;;;;;;;;;18.70;50.80;;;;;;5144674;27;42924;-77
2022/01/18 04:08:34;;;;;;;;;;;18.70;50.90;;;;;;5140423;27;43037;-74
2022/01/18 04:10:59;;;;;;;;;;;18.70;50.90;;;;;;5136367;27;43609;-80
2022/01/18 04:13:25;;;;;;;;;;;18.70;51.00;;;;;;5140755;27;43068;-80
2022/01/18 04:15:50;;;;;;;;;;;18.70;51.00;;;;;;5125367;27;43581;-78
2022/01/18 04:28:54;;;;;;;;;;;18.70;51.20;;;;;;5126819;27;42960;-79
2022/01/18 04:31:20;;;;;;;;;;;18.70;51.10;;;;;;5132101;27;42860;-80
2022/01/18 04:33:46;;;;;;;;;;;18.70;51.20;;;;;;5144539;27;42939;-80
2022/01/18 04:36:11;;;;;;;;;;;18.70;51.10;;;;;;5142306;27;42885;-79
2022/01/18 04:38:37;;;;;;;;;;;18.70;51.40;;;;;;5141712;27;43301;-78
2022/01/18 04:41:09;;;;;;;;;;;18.70;51.30;;;;;;5134283;27;43504;-80
2022/01/18 04:49:07;;;;;;;;;;;18.70;51.30;;;;;;5127185;27;42932;-79
2022/01/18 04:51:32;;;;;;;;;;;18.70;51.30;;;;;;5137145;27;43200;-79
2022/01/18 04:54:00;;;;;;;;;;;18.60;51.40;;;;;;5134160;27;42906;-75
2022/01/18 04:57:52;;;;;;;;;;;18.70;51.30;;;;;;5145900;27;42940;-80
2022/01/18 04:59:13;;;;;;;;;;;18.70;51.40;;;;;;5127830;27;43065;-78
2022/01/18 05:01:40;;;;;;;;;;;18.70;51.30;;;;;;5140643;27;43600;-79
2022/01/18 05:04:05;;;;;;;;;;;18.60;51.30;;;;;;5127802;27;42927;-80
2022/01/18 05:06:31;;;;;;;;;;;18.70;51.40;;;;;;5143841;27;42913;-76
2022/01/18 05:08:59;;;;;;;;;;;18.60;51.30;;;;;;5139807;27;42872;-79
2022/01/18 05:11:27;;;;;;;;;;;18.70;51.40;;;;;;5123754;27;42952;-80
2022/01/18 05:14:15;;;;;;;;;;;18.60;51.40;;;;;;5139225;27;42994;-77
2022/01/18 05:16:50;;;;;;;;;;;18.60;51.40;;;;;;5131144;27;43536;-79
2022/01/18 05:19:41;;;;;;;;;;;18.60;51.50;;;;;;5139710;27;42961;-74
2022/01/18 05:24:32;;;;;;;;;;;18.70;51.20;;;;;;5144742;27;42926;-78
2022/01/18 05:26:59;;;;;;;;;;;18.70;51.50;;;;;;5142994;27;43770;-78
2022/01/18 05:29:26;;;;;;;;;;;18.70;51.40;;;;;;5145393;27;43162;-78
2022/01/18 05:31:52;;;;;;;;;;;18.70;51.30;;;;;;5127750;27;43567;-77
2022/01/18 05:34:17;;;;;;;;;;;18.70;51.30;;;;;;5128599;27;43651;-79
2022/01/18 05:36:43;;;;;;;;;;;18.70;51.40;;;;;;5148697;27;43525;-79
2022/01/18 05:39:09;;;;;;;;;;;18.60;51.40;;;;;;5146492;27;42934;-76
2022/01/18 05:41:39;;;;;;;;;;;18.60;51.40;;;;;;5146882;27;42979;-74
2022/01/18 05:44:05;;;;;;;;;;;18.80;51.50;;;;;;5149797;27;42872;-78
2022/01/18 05:46:31;;;;;;;;;;;18.70;51.40;;;;;;5134780;27;43796;-78
2022/01/18 05:49:00;;;;;;;;;;;18.60;51.40;;;;;;5128130;27;43199;-79
2022/01/18 05:51:27;;;;;;;;;;;18.60;51.40;;;;;;5127751;27;43593;-78
2022/01/18 05:53:52;;;;;;;;;;;18.70;51.40;;;;;;5127877;27;43075;-78
2022/01/18 05:56:18;;;;;;;;;;;18.60;51.30;;;;;;5128442;27;42973;-78
2022/01/18 05:58:45;;;;;;;;;;;18.60;51.30;;;;;;5134189;27;42947;-79
2022/01/18 06:01:11;;;;;;;;;;;18.60;51.40;;;;;;5131385;27;43368;-78
2022/01/18 06:03:51;;;;;;;;;;;18.60;51.30;;;;;;5136993;27;43083;-77
2022/01/18 06:09:01;;;;;;;;;;;18.60;51.30;;;;;;5148989;27;42895;-78
2022/01/18 06:11:26;;;;;;;;;;;18.60;51.40;;;;;;5146590;27;42989;-77
2022/01/18 06:13:51;;;;;;;;;;;18.60;51.30;;;;;;5133222;27;42954;-77
2022/01/18 06:16:17;;;;;;;;;;;18.60;51.30;;;;;;5128234;27;43548;-77
2022/01/18 06:18:43;;;;;;;;;;;18.60;51.30;;;;;;5126900;27;43038;-75
2022/01/18 06:21:08;;;;;;;;;;;18.60;51.20;;;;;;5119639;27;43008;-77
2022/01/18 06:23:34;;;;;;;;;;;18.60;51.30;;;;;;5144457;27;43010;-77
2022/01/18 06:26:02;;;;;;;;;;;18.60;51.20;;;;;;5145758;27;43122;-78
2022/01/18 06:28:28;;;;;;;;;;;18.60;51.20;;;;;;5109983;27;43003;-77
2022/01/18 06:30:54;;;;;;;;;;;18.60;51.30;;;;;;5143344;27;44342;-76
2022/01/18 06:33:19;;;;;;;;;;;18.60;51.20;;;;;;5145160;27;43206;-76
2022/01/18 06:35:45;;;;;;;;;;;18.60;51.30;;;;;;5146417;27;43075;-77
2022/01/18 06:38:12;;;;;;;;;;;18.60;51.30;;;;;;5145997;27;42983;-80
2022/01/18 06:40:38;;;;;;;;;;;18.50;51.30;;;;;;5146311;27;42999;-80
2022/01/18 06:43:04;;;;;;;;;;;18.50;51.30;;;;;;5145540;27;43138;-81
2022/01/18 06:45:29;;;;;;;;;;;18.50;51.40;;;;;;5145858;27;42989;-77
2022/01/18 06:47:55;;;;;;;;;;;18.50;51.40;;;;;;5142115;27;43067;-80
2022/01/18 06:50:20;;;;;;;;;;;18.50;51.30;;;;;;5142951;27;43900;-78
2022/01/18 06:52:46;;;;;;;;;;;18.50;51.40;;;;;;5145701;27;42987;-77
2022/01/18 06:55:12;;;;;;;;;;;18.50;51.30;;;;;;5143347;27;44451;-79
2022/01/18 06:57:38;;;;;;;;;;;18.50;51.30;;;;;;5146173;27;43124;-77
2022/01/18 07:00:04;;;;;;;;;;;18.50;51.30;;;;;;5146516;27;43170;-79
2022/01/18 07:02:29;;;;;;;;;;;18.50;51.30;;;;;;5146006;27;43287;-78
2022/01/18 07:04:55;;;;;;;;;;;18.50;51.40;;;;;;5146548;27;43534;-77
2022/01/18 07:07:20;;;;;;;;;;;18.50;51.30;;;;;;5146992;27;43114;-79
2022/01/18 07:09:46;;;;;;;;;;;18.50;51.30;;;;;;5146892;27;43441;-79
2022/01/18 07:12:12;;;;;;;;;;;18.50;51.30;;;;;;5147446;27;43033;-82
2022/01/18 07:14:39;;;;;;;;;;;18.50;51.20;;;;;;5140031;27;43296;-81
2022/01/18 07:17:05;;;;;;;;;;;18.60;51.20;;;;;;5146682;27;43030;-74
2022/01/18 07:19:32;;;;;;;;;;;18.50;51.10;;;;;;5146711;27;43356;-79
2022/01/18 07:22:00;;;;;;;;;;;18.50;51.00;;;;;;5147372;27;43115;-77
2022/01/18 07:27:21;;;;;;;;;;;18.60;50.40;;;;;;5123299;27;43023;-80
2022/01/18 07:29:46;;;;;;;;;;;18.50;47.60;;;;;;5146142;27;42820;-81
2022/01/18 07:32:12;;;;;;;;;;;18.50;48.00;;;;;;5146426;27;42921;-83
2022/01/18 07:34:46;;;;;;;;;;;18.50;46.60;;;;;;5144727;27;43437;-74
2022/01/18 07:37:11;;;;;;;;;;;18.50;45.70;;;;;;5144161;27;42909;-77
2022/01/18 07:39:37;;;;;;;;;;;18.50;46.30;;;;;;5144117;27;42870;-79
2022/01/18 07:42:03;;;;;;;;;;;17.70;45.70;;;;;;5144823;27;42924;-77
2022/01/18 07:44:30;;;;;;;;;;;18.50;46.50;;;;;;5145830;27;43330;-75
2022/01/18 07:46:55;;;;;;;;;;;18.50;45.00;;;;;;5147160;27;42904;-72
2022/01/18 07:49:21;;;;;;;;;;;18.40;45.00;;;;;;5146827;27;43232;-80
2022/01/18 07:51:46;;;;;;;;;;;18.40;45.60;;;;;;5126765;27;43143;-81
2022/01/18 07:54:12;;;;;;;;;;;18.40;45.30;;;;;;5146996;27;43422;-79
2022/01/18 07:56:41;;;;;;;;;;;18.40;44.50;;;;;;5146945;27;42899;-75
2022/01/18 07:59:06;;;;;;;;;;;18.40;47.20;;;;;;5147152;27;43397;-80
2022/01/18 08:01:32;;;;;;;;;;;18.40;47.10;;;;;;5144532;27;42987;-74
2022/01/18 08:03:57;;;;;;;;;;;18.50;47.30;;;;;;5141169;27;43639;-80
2022/01/18 08:06:23;;;;;;;;;;;18.50;48.10;;;;;;5144873;27;43111;-75
2022/01/18 08:08:49;;;;;;;;;;;18.50;47.10;;;;;;5144540;27;43750;-72
2022/01/18 08:11:32;;;;;;;;;;;18.50;48.80;;;;;;5141071;27;43019;-78
2022/01/18 08:14:00;;;;;;;;;;;18.50;48.50;;;;;;5139388;27;43067;-78
2022/01/18 08:18:55;;;;;;;;;;;18.10;35.70;;;;;;5136402;27;44004;-77
2022/01/18 08:21:20;;;;;;;;;;;18.00;37.50;;;;;;5142387;27;43041;-83
2022/01/18 08:23:46;;;;;;;;;;;17.90;39.60;;;;;;5142472;27;42987;-83
2022/01/18 08:26:12;;;;;;;;;;;18.00;39.80;;;;;;5141472;27;43161;-75
2022/01/18 08:28:37;;;;;;;;;;;17.90;37.60;;;;;;5141965;27;43606;-81
2022/01/18 08:31:04;;;;;;;;;;;16.80;35.50;;;;;;5139167;27;43097;-79
2022/01/18 08:33:33;;;;;;;;;;;16.50;35.30;;;;;;5141913;27;43069;-76
2022/01/18 08:35:59;;;;;;;;;;;16.60;34.20;;;;;;5142241;27;42929;-76
2022/01/18 08:38:26;;;;;;;;;;;16.60;34.10;;;;;;5141761;27;43454;-73
2022/01/18 08:40:52;;;;;;;;;;;16.80;33.80;;;;;;5135704;27;42852;-71
2022/01/18 08:43:17;;;;;;;;;;;16.60;33.60;;;;;;5121046;27;42983;-79
2022/01/18 08:45:43;;;;;;;;;;;16.70;34.20;;;;;;5121221;27;42932;-76
2022/01/18 08:48:08;;;;;;;;;;;16.80;35.20;;;;;;5121732;27;43102;-83
2022/01/18 08:50:34;;;;;;;;;;;17.00;36.10;;;;;;5121377;27;42957;-80
2022/01/18 08:52:59;;;;;;;;;;;17.20;37.40;;;;;;5122029;27;42949;-80
2022/01/18 08:55:25;;;;;;;;;;;17.30;37.00;;;;;;5121627;27;43028;-80
2022/01/18 08:57:50;;;;;;;;;;;17.40;36.90;;;;;;5121779;27;43545;-80
2022/01/18 09:00:17;;;;;;;;;;;17.40;36.80;;;;;;5121616;27;43082;-76
2022/01/18 09:02:42;;;;;;;;;;;17.50;36.20;;;;;;5120944;27;44278;-80
2022/01/18 09:05:09;;;;;;;;;;;17.50;36.40;;;;;;5121897;27;42857;-78
2022/01/18 09:07:37;;;;;;;;;;;17.50;36.20;;;;;;5120895;27;44244;-80
2022/01/18 09:10:06;;;;;;;;;;;17.50;36.30;;;;;;5121170;27;42987;-80
2022/01/18 09:12:33;;;;;;;;;;;17.60;36.40;;;;;;5121375;27;42964;-80
2022/01/18 09:15:01;;;;;;;;;;;17.60;36.40;;;;;;5137080;27;43194;-74
2022/01/18 09:17:30;;;;;;;;;;;17.50;36.40;;;;;;5121651;27;42909;-80
2022/01/18 09:19:56;;;;;;;;;;;17.60;36.40;;;;;;5121897;27;43005;-73
2022/01/18 09:22:22;;;;;;;;;;;17.60;36.60;;;;;;5111012;27;42909;-73
2022/01/18 09:24:48;;;;;;;;;;;17.60;36.60;;;;;;5108138;27;43008;-74
2022/01/18 09:27:13;;;;;;;;;;;17.60;36.70;;;;;;5107540;27;43288;-79
2022/01/18 09:29:40;;;;;;;;;;;17.60;36.70;;;;;;5107700;27;43059;-74
2022/01/18 09:32:06;;;;;;;;;;;17.60;36.60;;;;;;5107684;27;42998;-74
2022/01/18 09:34:31;;;;;;;;;;;17.60;36.60;;;;;;5108104;27;43003;-78
2022/01/18 09:36:57;;;;;;;;;;;17.60;36.70;;;;;;5106659;27;43471;-72
2022/01/18 09:39:25;;;;;;;;;;;17.60;36.60;;;;;;5107642;27;43072;-76
2022/01/18 09:41:53;;;;;;;;;;;17.60;36.60;;;;;;5107346;27;43753;-78
2022/01/18 09:44:18;;;;;;;;;;;17.60;36.70;;;;;;5107880;27;43075;-73
2022/01/18 09:46:44;;;;;;;;;;;17.60;36.60;;;;;;5107011;27;43562;-81
2022/01/18 09:49:10;;;;;;;;;;;17.60;36.70;;;;;;5107272;27;42966;-80
2022/01/18 09:51:35;;;;;;;;;;;17.80;36.60;;;;;;5108086;27;43502;-76
2022/01/18 09:54:01;;;;;;;;;;;17.90;36.40;;;;;;5107643;27;42797;-75
2022/01/18 09:56:27;;;;;;;;;;;18.00;36.30;;;;;;5106755;27;42980;-80
2022/01/18 09:58:52;;;;;;;;;;;18.00;36.20;;;;;;5140657;27;42843;-80
2022/01/18 10:01:19;;;;;;;;;;;18.00;36.10;;;;;;5107001;27;43616;-76
2022/01/18 10:03:44;;;;;;;;;;;18.10;36.40;;;;;;5107245;27;42983;-81
2022/01/18 10:06:10;;;;;;;;;;;18.00;36.50;;;;;;5106994;27;43748;-74
2022/01/18 10:08:37;;;;;;;;;;;17.90;36.50;;;;;;5139775;27;43109;-75
2022/01/18 10:11:17;;;;;;;;;;;18.00;36.70;;;;;;5106664;27;42998;-74
2022/01/18 10:13:45;;;;;;;;;;;17.90;36.90;;;;;;5107157;27;42977;-79
2022/01/18 10:16:13;;;;;;;;;;;17.90;36.90;;;;;;5138856;27;43748;-80
2022/01/18 10:18:51;;;;;;;;;;;17.90;37.00;;;;;;5106492;27;43106;-81
2022/01/18 10:21:23;;;;;;;;;;;17.80;37.00;;;;;;5106493;27;43985;-81
2022/01/18 10:23:49;;;;;;;;;;;17.90;37.00;;;;;;5106999;27;42944;-80
2022/01/18 10:26:19;;;;;;;;;;;17.80;37.10;;;;;;5106533;27;43549;-80
2022/01/18 10:28:45;;;;;;;;;;;17.80;37.20;;;;;;5105491;27;43166;-80
2022/01/18 10:31:26;;;;;;;;;;;17.80;37.30;;;;;;5106620;27;43107;-81
2022/01/18 10:34:10;;;;;;;;;;;17.80;37.20;;;;;;5106102;27;42810;-81
2022/01/18 10:36:49;;;;;;;;;;;17.80;37.30;;;;;;5106825;27;42877;-81
2022/01/18 10:39:19;;;;;;;;;;;17.80;37.30;;;;;;5107026;27;42980;-81
2022/01/18 10:41:45;;;;;;;;;;;17.80;37.10;;;;;;5106972;27;43797;-81
2022/01/18 10:44:13;;;;;;;;;;;17.80;37.10;;;;;;5106850;27;42838;-81
2022/01/18 10:46:43;;;;;;;;;;;17.70;37.10;;;;;;5106327;27;43588;-81
2022/01/18 10:49:09;;;;;;;;;;;17.80;37.10;;;;;;5106824;27;42986;-81
2022/01/18 10:51:35;;;;;;;;;;;17.80;37.10;;;;;;5106088;27;42886;-82
2022/01/18 10:54:03;;;;;;;;;;;17.70;37.00;;;;;;5105927;27;43073;-81
2022/01/18 10:56:39;;;;;;;;;;;17.70;37.10;;;;;;5104094;27;44525;-81
2022/01/18 10:59:05;;;;;;;;;;;17.70;37.20;;;;;;5104570;27;42936;-81
2022/01/18 11:01:31;;;;;;;;;;;17.70;37.20;;;;;;5105984;27;43553;-80
2022/01/18 11:04:11;;;;;;;;;;;17.80;37.40;;;;;;5106098;27;42857;-78
2022/01/18 11:06:37;;;;;;;;;;;17.70;37.20;;;;;;5106073;27;42976;-80
2022/01/18 11:09:07;;;;;;;;;;;17.70;37.00;;;;;;5106078;27;42884;-79
2022/01/18 11:11:32;;;;;;;;;;;17.70;36.90;;;;;;5105528;27;43087;-79
2022/01/18 11:14:02;;;;;;;;;;;17.70;37.10;;;;;;5105851;27;42919;-80
2022/01/18 11:16:27;;;;;;;;;;;17.70;37.00;;;;;;5105081;27;43222;-77
2022/01/18 11:18:54;;;;;;;;;;;17.70;37.00;;;;;;5090643;27;43083;-78
2022/01/18 11:21:23;;;;;;;;;;;17.70;35.90;;;;;;5134137;27;44680;-78
2022/01/18 11:23:49;;;;;;;;;;;17.70;35.10;;;;;;5088456;27;42818;-77
2022/01/18 11:26:17;;;;;;;;;;;17.60;35.50;;;;;;5119685;27;43607;-78
2022/01/18 11:28:42;;;;;;;;;;;17.20;34.10;;;;;;5119540;27;43040;-80
2022/01/18 11:31:10;;;;;;;;;;;17.10;34.50;;;;;;5119157;27;43324;-78
2022/01/18 11:33:37;;;;;;;;;;;17.10;34.70;;;;;;5125568;27;43007;-77
2022/01/18 11:36:12;;;;;;;;;;;17.00;34.80;;;;;;5125529;27;43062;-79
2022/01/18 11:38:50;;;;;;;;;;;17.10;34.80;;;;;;5125402;27;42951;-76
2022/01/18 11:41:31;;;;;;;;;;;17.00;33.90;;;;;;5125168;27;43610;-77
2022/01/18 11:43:59;;;;;;;;;;;16.90;34.10;;;;;;5124086;27;43044;-77
2022/01/18 11:46:25;;;;;;;;;;;16.80;34.70;;;;;;5119361;27;43391;-74
2022/01/18 11:49:17;;;;;;;;;;;16.90;34.40;;;;;;5119306;27;42848;-83
2022/01/18 11:51:52;;;;;;;;;;;16.70;34.20;;;;;;5122917;27;43585;-81
2022/01/18 11:57:00;;;;;;;;;;;16.70;34.90;;;;;;5119072;27;43236;-78
2022/01/18 11:59:27;;;;;;;;;;;16.90;35.10;;;;;;5125319;27;42922;-77
2022/01/18 12:01:56;;;;;;;;;;;17.00;35.10;;;;;;5126204;27;43146;-75
2022/01/18 12:07:06;;;;;;;;;;;16.90;35.10;;;;;;5126166;27;43303;-85
2022/01/18 12:09:37;;;;;;;;;;;17.00;35.40;;;;;;5126192;27;42801;-76
2022/01/18 12:12:04;;;;;;;;;;;17.10;36.00;;;;;;5125566;27;42983;-72
2022/01/18 12:14:32;;;;;;;;;;;17.30;36.40;;;;;;5125424;27;43664;-78
2022/01/18 12:17:11;;;;;;;;;;;17.40;36.60;;;;;;5124439;27;43806;-73
2022/01/18 12:19:47;;;;;;;;;;;17.50;36.70;;;;;;5124244;27;43054;-78
2022/01/18 12:22:13;;;;;;;;;;;17.50;36.90;;;;;;5118646;27;43086;-78
2022/01/18 12:24:44;;;;;;;;;;;17.60;37.00;;;;;;5118740;27;43040;-75
2022/01/18 12:27:25;;;;;;;;;;;17.60;37.20;;;;;;5104300;27;42947;-78
2022/01/18 12:30:14;;;;;;;;;;;17.60;37.40;;;;;;5115752;27;42830;-73
2022/01/18 12:32:56;;;;;;;;;;;17.70;37.50;;;;;;5109323;27;44006;-79
2022/01/18 12:35:23;;;;;;;;;;;17.70;37.80;;;;;;5125305;27;42996;-77
2022/01/18 12:37:48;;;;;;;;;;;17.70;37.90;;;;;;5125629;27;43027;-78
2022/01/18 12:40:25;;;;;;;;;;;17.70;38.00;;;;;;5124977;27;43157;-73
2022/01/18 12:45:32;;;;;;;;;;;17.80;38.20;;;;;;5123745;27;43016;-78
2022/01/18 12:48:08;;;;;;;;;;;17.80;38.30;;;;;;5116601;27;45417;-74
2022/01/18 12:50:38;;;;;;;;;;;17.80;38.50;;;;;;5119019;27;42908;-74
2022/01/18 12:53:05;;;;;;;;;;;17.80;38.40;;;;;;5124199;27;43086;-77
2022/01/18 12:55:31;;;;;;;;;;;17.80;38.70;;;;;;5115788;27;43256;-77
2022/01/18 12:58:07;;;;;;;;;;;17.80;38.90;;;;;;5126364;27;43095;-81
2022/01/18 13:00:38;;;;;;;;;;;17.90;38.80;;;;;;5126892;27;42974;-77
2022/01/18 13:03:03;;;;;;;;;;;17.80;39.10;;;;;;5128088;27;43593;-72
2022/01/18 13:05:44;;;;;;;;;;;17.80;39.30;;;;;;5127824;27;42896;-77
2022/01/18 13:08:14;;;;;;;;;;;17.80;39.60;;;;;;5126047;27;43065;-81
2022/01/18 13:10:41;;;;;;;;;;;17.80;39.90;;;;;;5127771;27;42935;-78
2022/01/18 13:13:07;;;;;;;;;;;17.90;40.10;;;;;;5127993;27;42913;-81
2022/01/18 13:15:48;;;;;;;;;;;17.90;40.40;;;;;;5127232;27;43037;-71
2022/01/18 13:26:26;;;;;;;;;;;17.80;40.30;;;;;;5105231;27;43055;-76
2022/01/18 13:28:52;;;;;;;;;;;17.90;40.20;;;;;;5120060;27;43447;-80
2022/01/18 13:31:19;;;;;;;;;;;17.90;40.30;;;;;;5117649;27;43101;-79
2022/01/18 13:34:04;;;;;;;;;;;17.90;40.90;;;;;;5125882;27;43062;-74
2022/01/18 13:36:46;;;;;;;;;;;17.90;40.40;;;;;;5137417;27;43147;-74
2022/01/18 13:39:32;;;;;;;;;;;18.00;40.50;;;;;;5111358;27;43997;-74
2022/01/18 13:42:00;;;;;;;;;;;17.90;40.40;;;;;;5112638;27;43677;-75
2022/01/18 13:44:26;;;;;;;;;;;17.90;40.50;;;;;;5124347;27;44939;-75
2022/01/18 13:46:51;;;;;;;;;;;18.00;40.70;;;;;;5105338;27;43204;-73
2022/01/18 13:49:21;;;;;;;;;;;18.00;40.70;;;;;;5115744;27;45647;-74
2022/01/18 13:52:06;;;;;;;;;;;18.00;40.80;;;;;;5117526;27;43139;-75
2022/01/18 13:54:42;;;;;;;;;;;18.00;40.90;;;;;;5121395;27;43841;-74
2022/01/18 13:57:08;;;;;;;;;;;18.00;41.00;;;;;;5120623;27;42895;-73
2022/01/18 13:59:34;;;;;;;;;;;18.00;41.10;;;;;;5120580;27;44979;-77
2022/01/18 14:02:08;;;;;;;;;;;18.00;41.20;;;;;;5120148;27;43012;-72
2022/01/18 14:04:34;;;;;;;;;;;18.00;41.00;;;;;;5113018;27;44661;-76
2022/01/18 14:07:02;;;;;;;;;;;18.00;40.30;;;;;;5122765;27;43073;-77
2022/01/18 14:09:28;;;;;;;;;;;18.00;39.90;;;;;;5115349;27;43101;-72
2022/01/18 14:11:54;;;;;;;;;;;18.00;39.60;;;;;;5125777;27;43126;-79
2022/01/18 14:14:21;;;;;;;;;;;18.00;39.80;;;;;;5127437;27;43308;-82
2022/01/18 14:16:51;;;;;;;;;;;18.00;39.80;;;;;;5128005;27;42826;-77
2022/01/18 14:19:29;;;;;;;;;;;18.00;39.30;;;;;;5124990;27;45724;-75
2022/01/18 14:21:56;;;;;;;;;;;18.00;39.50;;;;;;5124580;27;42969;-75
2022/01/18 14:24:23;;;;;;;;;;;18.00;39.00;;;;;;5112875;27;43050;-76
2022/01/18 14:26:48;;;;;;;;;;;17.90;39.20;;;;;;5114186;27;43184;-74
2022/01/18 14:29:14;;;;;;;;;;;17.90;38.80;;;;;;5105205;27;43066;-74
2022/01/18 14:31:40;;;;;;;;;;;18.00;38.90;;;;;;5114681;27;43034;-74
2022/01/18 14:34:06;;;;;;;;;;;18.00;38.90;;;;;;5122097;27;43684;-76
2022/01/18 14:36:31;;;;;;;;;;;18.00;38.60;;;;;;5139777;27;42944;-76
2022/01/18 14:39:04;;;;;;;;;;;18.00;39.30;;;;;;5106444;27;42846;-74
2022/01/18 14:41:29;;;;;;;;;;;18.00;39.30;;;;;;5105244;27;43610;-75
2022/01/18 14:44:03;;;;;;;;;;;18.00;38.70;;;;;;5122788;27;43204;-75
2022/01/18 14:46:47;;;;;;;;;;;18.00;39.20;;;;;;5120481;27;42999;-76
2022/01/18 14:49:13;;;;;;;;;;;18.00;38.80;;;;;;5108325;27;43939;-74
2022/01/18 14:51:39;;;;;;;;;;;17.90;38.60;;;;;;5109159;27;42886;-77
2022/01/18 14:54:07;;;;;;;;;;;18.00;38.60;;;;;;5126265;27;43639;-77
2022/01/18 14:56:32;;;;;;;;;;;18.00;38.80;;;;;;5112487;27;42997;-78
2022/01/18 14:58:58;;;;;;;;;;;18.00;38.80;;;;;;5123295;27;42954;-79
2022/01/18 15:01:25;;;;;;;;;;;17.90;38.70;;;;;;5119774;27;42947;-79
2022/01/18 15:03:51;;;;;;;;;;;17.90;38.50;;;;;;5119150;27;42977;-79
2022/01/18 15:06:16;;;;;;;;;;;17.90;38.70;;;;;;5118907;27;43021;-77
2022/01/18 15:08:42;;;;;;;;;;;17.90;38.80;;;;;;5114710;27;43087;-77
2022/01/18 15:11:08;;;;;;;;;;;17.90;38.60;;;;;;5111951;27;42954;-77
2022/01/18 15:13:33;;;;;;;;;;;17.90;38.70;;;;;;5110755;27;43011;-76
2022/01/18 15:15:59;;;;;;;;;;;17.90;38.70;;;;;;5113161;27;42921;-76
2022/01/18 15:18:26;;;;;;;;;;;17.90;38.70;;;;;;5114982;27;43183;-76
2022/01/18 15:20:52;;;;;;;;;;;17.90;38.60;;;;;;5118812;27;42983;-78
2022/01/18 15:23:17;;;;;;;;;;;17.90;38.90;;;;;;5093093;27;43078;-78
2022/01/18 15:25:43;;;;;;;;;;;17.90;38.70;;;;;;5125226;27;43001;-77
2022/01/18 15:28:08;;;;;;;;;;;17.90;38.70;;;;;;5118271;27;43136;-78
2022/01/18 15:30:34;;;;;;;;;;;17.90;38.60;;;;;;5118432;27;42889;-78
2022/01/18 15:33:01;;;;;;;;;;;17.90;39.50;;;;;;5107534;27;43500;-77
2022/01/18 15:35:27;;;;;;;;;;;17.90;36.80;;;;;;5108659;27;43597;-78
2022/01/18 15:37:53;;;;;;;;;;;17.90;37.40;;;;;;5123305;27;43262;-78
2022/01/18 15:40:18;;;;;;;;;;;17.90;37.60;;;;;;5103268;27;44471;-77
2022/01/18 15:42:44;;;;;;;;;;;17.90;38.40;;;;;;5104909;27;43049;-79
2022/01/18 15:45:10;;;;;;;;;;;18.00;38.70;;;;;;5105548;27;44627;-79
2022/01/18 15:47:36;;;;;;;;;;;18.00;39.20;;;;;;5139118;27;42957;-83